sensor_id;sensor_type;location;lat;lon;timestamp;pressure;altitude;pressure_sealevel;temperature;humidity
53932;BME280;39844;52.496;13.482;2024-02-28T00:02:22;101625.81;;;4.87;100.00
53932;BME280;39844;52.496;13.482;2024-02-28T00:04:48;101631.91;;;4.88;100.00
53932;BME280;39844;52.496;13.482;2024-02-28T00:07:13;101628.34;;;4.86;100.00
53932;BME280;39844;52.496;13.482;2024-02-28T00:09:38;101632.63;;;4.84;100.00
53932;BME280;39844;52.496;13.482;2024-02-28T00:12:03;101623.06;;;4.83;100.00
53932;BME280;39844;52.496;13.482;2024-02-28T00:14:29;101629.03;;;4.80;100.00
53932;BME280;39844;52.496;13.482;2024-02-28T00:16:54;101625.59;;;4.81;100.00
53932;BME280;39844;52.496;13.482;2024-02-28T00:19:19;101622.06;;;4.79;100.00
53932;BME280;39844;52.496;13.482;2024-02-28T00:21:45;101617.59;;;4.75;100.00
53932;BME280;39844;52.496;13.482;2024-02-28T00:24:10;101616.59;;;4.72;100.00
53932;BME280;39844;52.496;13.482;2024-02-28T00:26:36;101622.69;;;4.72;100.00
53932;BME280;39844;52.496;13.482;2024-02-28T00:29:01;101619.16;;;4.70;100.00
53932;BME280;39844;52.496;13.482;2024-02-28T00:31:26;101616.50;;;4.69;100.00
53932;BME280;39844;52.496;13.482;2024-02-28T00:33:52;101620.81;;;4.68;100.00
53932;BME280;39844;52.496;13.482;2024-02-28T00:36:18;101621.59;;;4.66;100.00
53932;BME280;39844;52.496;13.482;2024-02-28T00:38:43;101628.47;;;4.64;100.00
53932;BME280;39844;52.496;13.482;2024-02-28T00:41:08;101618.94;;;4.64;100.00
53932;BME280;39844;52.496;13.482;2024-02-28T00:43:34;101625.84;;;4.64;100.00
53932;BME280;39844;52.496;13.482;2024-02-28T00:45:59;101631.91;;;4.63;100.00
53932;BME280;39844;52.496;13.482;2024-02-28T00:48:25;101629.34;;;4.64;100.00
53932;BME280;39844;52.496;13.482;2024-02-28T00:50:50;101626.72;;;4.63;100.00
53932;BME280;39844;52.496;13.482;2024-02-28T00:53:17;101626.63;;;4.61;100.00
53932;BME280;39844;52.496;13.482;2024-02-28T00:55:42;101625.81;;;4.62;100.00
53932;BME280;39844;52.496;13.482;2024-02-28T00:58:07;101629.25;;;4.61;100.00
53932;BME280;39844;52.496;13.482;2024-02-28T01:00:33;101630.94;;;4.61;100.00
53932;BME280;39844;52.496;13.482;2024-02-28T01:02:58;101632.56;;;4.57;100.00
53932;BME280;39844;52.496;13.482;2024-02-28T01:05:23;101630.84;;;4.58;100.00
53932;BME280;39844;52.496;13.482;2024-02-28T01:07:49;101629.97;;;4.57;100.00
53932;BME280;39844;52.496;13.482;2024-02-28T01:10:14;101633.44;;;4.58;100.00
53932;BME280;39844;52.496;13.482;2024-02-28T01:12:39;101635.22;;;4.59;100.00
53932;BME280;39844;52.496;13.482;2024-02-28T01:15:05;101637.00;;;4.60;100.00
53932;BME280;39844;52.496;13.482;2024-02-28T01:17:30;101647.41;;;4.60;100.00
53932;BME280;39844;52.496;13.482;2024-02-28T01:19:56;101639.63;;;4.61;100.00
53932;BME280;39844;52.496;13.482;2024-02-28T01:22:22;101651.81;;;4.62;100.00
53932;BME280;39844;52.496;13.482;2024-02-28T01:24:47;101659.63;;;4.62;100.00
53932;BME280;39844;52.496;13.482;2024-02-28T01:27:12;101641.34;;;4.61;100.00
53932;BME280;39844;52.496;13.482;2024-02-28T01:29:37;101636.16;;;4.61;100.00
53932;BME280;39844;52.496;13.482;2024-02-28T01:32:03;101636.09;;;4.59;100.00
53932;BME280;39844;52.496;13.482;2024-02-28T01:34:28;101634.31;;;4.58;100.00
53932;BME280;39844;52.496;13.482;2024-02-28T01:36:54;101634.31;;;4.58;100.00
53932;BME280;39844;52.496;13.482;2024-02-28T01:39:19;101642.00;;;4.55;100.00
53932;BME280;39844;52.496;13.482;2024-02-28T01:41:52;101631.59;;;4.55;100.00
53932;BME280;39844;52.496;13.482;2024-02-28T01:44:17;101639.38;;;4.54;100.00
53932;BME280;39844;52.496;13.482;2024-02-28T01:46:42;101630.69;;;4.53;100.00
53932;BME280;39844;52.496;13.482;2024-02-28T01:49:08;101645.38;;;4.53;100.00
53932;BME280;39844;52.496;13.482;2024-02-28T01:51:33;101634.13;;;4.52;100.00
53932;BME280;39844;52.496;13.482;2024-02-28T01:53:59;101639.34;;;4.52;100.00
53932;BME280;39844;52.496;13.482;2024-02-28T01:56:25;101637.56;;;4.51;100.00
53932;BME280;39844;52.496;13.482;2024-02-28T01:58:52;101646.25;;;4.52;100.00
53932;BME280;39844;52.496;13.482;2024-02-28T02:01:17;101640.19;;;4.53;100.00
53932;BME280;39844;52.496;13.482;2024-02-28T02:03:46;101623.72;;;4.52;100.00
53932;BME280;39844;52.496;13.482;2024-02-28T02:06:11;101622.97;;;4.55;100.00
53932;BME280;39844;52.496;13.482;2024-02-28T02:08:37;101620.41;;;4.56;100.00
53932;BME280;39844;52.496;13.482;2024-02-28T02:11:03;101618.72;;;4.58;100.00
53932;BME280;39844;52.496;13.482;2024-02-28T02:13:29;101625.69;;;4.59;100.00
53932;BME280;39844;52.496;13.482;2024-02-28T02:15:54;101618.81;;;4.60;100.00
53932;BME280;39844;52.496;13.482;2024-02-28T02:18:19;101614.50;;;4.60;100.00
53932;BME280;39844;52.496;13.482;2024-02-28T02:20:49;101631.84;;;4.61;100.00
53932;BME280;39844;52.496;13.482;2024-02-28T02:23:15;101629.25;;;4.61;100.00
53932;BME280;39844;52.496;13.482;2024-02-28T02:25:48;101632.75;;;4.63;100.00
53932;BME280;39844;52.496;13.482;2024-02-28T02:28:13;101635.38;;;4.63;100.00
53932;BME280;39844;52.496;13.482;2024-02-28T02:30:39;101638.75;;;4.61;100.00
53932;BME280;39844;52.496;13.482;2024-02-28T02:33:05;101637.97;;;4.63;100.00
53932;BME280;39844;52.496;13.482;2024-02-28T02:35:31;101636.34;;;4.65;100.00
53932;BME280;39844;52.496;13.482;2024-02-28T02:37:56;101641.53;;;4.65;100.00
53932;BME280;39844;52.496;13.482;2024-02-28T02:40:21;101641.41;;;4.62;100.00
53932;BME280;39844;52.496;13.482;2024-02-28T02:42:47;101650.03;;;4.61;100.00
53932;BME280;39844;52.496;13.482;2024-02-28T02:45:12;101657.84;;;4.61;100.00
53932;BME280;39844;52.496;13.482;2024-02-28T02:47:37;101662.22;;;4.62;100.00
53932;BME280;39844;52.496;13.482;2024-02-28T02:50:03;101659.50;;;4.59;100.00
53932;BME280;39844;52.496;13.482;2024-02-28T02:52:28;101657.84;;;4.61;100.00
53932;BME280;39844;52.496;13.482;2024-02-28T02:54:54;101662.25;;;4.64;100.00
53932;BME280;39844;52.496;13.482;2024-02-28T02:57:20;101664.84;;;4.64;100.00
53932;BME280;39844;52.496;13.482;2024-02-28T02:59:45;101671.84;;;4.65;100.00
53932;BME280;39844;52.496;13.482;2024-02-28T03:02:10;101672.72;;;4.65;100.00
53932;BME280;39844;52.496;13.482;2024-02-28T03:04:35;101672.00;;;4.69;100.00
53932;BME280;39844;52.496;13.482;2024-02-28T03:07:01;101663.41;;;4.72;100.00
53932;BME280;39844;52.496;13.482;2024-02-28T03:09:26;101673.81;;;4.72;100.00
53932;BME280;39844;52.496;13.482;2024-02-28T03:11:51;101671.25;;;4.73;100.00
53932;BME280;39844;52.496;13.482;2024-02-28T03:14:17;101663.56;;;4.76;100.00
53932;BME280;39844;52.496;13.482;2024-02-28T03:16:42;101659.22;;;4.75;100.00
53932;BME280;39844;52.496;13.482;2024-02-28T03:19:08;101662.59;;;4.73;100.00
53932;BME280;39844;52.496;13.482;2024-02-28T03:21:33;101667.59;;;4.68;100.00
53932;BME280;39844;52.496;13.482;2024-02-28T03:23:58;101672.72;;;4.65;100.00
53932;BME280;39844;52.496;13.482;2024-02-28T03:26:24;101668.19;;;4.60;100.00
53932;BME280;39844;52.496;13.482;2024-02-28T03:28:49;101681.00;;;4.55;100.00
53932;BME280;39844;52.496;13.482;2024-02-28T03:31:14;101682.56;;;4.50;100.00
53932;BME280;39844;52.496;13.482;2024-02-28T03:33:40;101678.91;;;4.45;100.00
53932;BME280;39844;52.496;13.482;2024-02-28T03:36:05;101680.53;;;4.41;100.00
53932;BME280;39844;52.496;13.482;2024-02-28T03:38:30;101678.81;;;4.42;100.00
53932;BME280;39844;52.496;13.482;2024-02-28T03:40:56;101676.22;;;4.42;100.00
53932;BME280;39844;52.496;13.482;2024-02-28T03:43:21;101666.66;;;4.41;100.00
53932;BME280;39844;52.496;13.482;2024-02-28T03:45:46;101671.72;;;4.38;100.00
53932;BME280;39844;52.496;13.482;2024-02-28T03:48:12;101677.81;;;4.38;100.00
53932;BME280;39844;52.496;13.482;2024-02-28T03:50:37;101677.84;;;4.40;100.00
53932;BME280;39844;52.496;13.482;2024-02-28T03:53:02;101680.47;;;4.40;100.00
53932;BME280;39844;52.496;13.482;2024-02-28T03:55:28;101677.81;;;4.38;100.00
53932;BME280;39844;52.496;13.482;2024-02-28T03:57:53;101677.78;;;4.37;100.00
53932;BME280;39844;52.496;13.482;2024-02-28T04:00:18;101682.13;;;4.38;100.00
53932;BME280;39844;52.496;13.482;2024-02-28T04:02:44;101679.47;;;4.36;100.00
53932;BME280;39844;52.496;13.482;2024-02-28T04:05:09;101673.44;;;4.37;100.00
53932;BME280;39844;52.496;13.482;2024-02-28T04:07:34;101683.91;;;4.39;100.00
53932;BME280;39844;52.496;13.482;2024-02-28T04:10:00;101688.25;;;4.40;100.00
53932;BME280;39844;52.496;13.482;2024-02-28T04:12:25;101689.81;;;4.35;100.00
53932;BME280;39844;52.496;13.482;2024-02-28T04:14:50;101688.75;;;4.30;100.00
53932;BME280;39844;52.496;13.482;2024-02-28T04:17:16;101702.47;;;4.26;100.00
53932;BME280;39844;52.496;13.482;2024-02-28T04:19:41;101692.97;;;4.26;100.00
53932;BME280;39844;52.496;13.482;2024-02-28T04:22:06;101699.06;;;4.27;100.00
53932;BME280;39844;52.496;13.482;2024-02-28T04:24:31;101702.47;;;4.26;100.00
53932;BME280;39844;52.496;13.482;2024-02-28T04:26:57;101699.06;;;4.27;100.00
53932;BME280;39844;52.496;13.482;2024-02-28T04:29:22;101701.69;;;4.28;100.00
53932;BME280;39844;52.496;13.482;2024-02-28T04:31:47;101700.81;;;4.28;100.00
53932;BME280;39844;52.496;13.482;2024-02-28T04:34:13;101707.78;;;4.29;100.00
53932;BME280;39844;52.496;13.482;2024-02-28T04:36:40;101701.75;;;4.30;100.00
53932;BME280;39844;52.496;13.482;2024-02-28T04:39:06;101692.19;;;4.29;100.00
53932;BME280;39844;52.496;13.482;2024-02-28T04:41:31;101702.59;;;4.29;100.00
53932;BME280;39844;52.496;13.482;2024-02-28T04:43:56;101710.50;;;4.32;100.00
53932;BME280;39844;52.496;13.482;2024-02-28T04:46:21;101710.50;;;4.32;100.00
53932;BME280;39844;52.496;13.482;2024-02-28T04:48:47;101713.97;;;4.32;100.00
53932;BME280;39844;52.496;13.482;2024-02-28T04:51:15;101715.75;;;4.33;100.00
53932;BME280;39844;52.496;13.482;2024-02-28T04:53:41;101726.19;;;4.35;100.00
53932;BME280;39844;52.496;13.482;2024-02-28T04:56:06;101723.72;;;4.38;100.00
53932;BME280;39844;52.496;13.482;2024-02-28T04:58:31;101726.25;;;4.36;100.00
53932;BME280;39844;52.496;13.482;2024-02-28T05:00:56;101728.78;;;4.35;100.00
53932;BME280;39844;52.496;13.482;2024-02-28T05:03:22;101733.94;;;4.33;100.00
53932;BME280;39844;52.496;13.482;2024-02-28T05:05:47;101729.69;;;4.35;100.00
53932;BME280;39844;52.496;13.482;2024-02-28T05:08:12;101736.66;;;4.36;100.00
53932;BME280;39844;52.496;13.482;2024-02-28T05:10:38;101742.75;;;4.37;100.00
53932;BME280;39844;52.496;13.482;2024-02-28T05:13:03;101738.38;;;4.36;100.00
53932;BME280;39844;52.496;13.482;2024-02-28T05:15:28;101744.38;;;4.35;100.00
53932;BME280;39844;52.496;13.482;2024-02-28T05:17:54;101754.78;;;4.35;100.00
53932;BME280;39844;52.496;13.482;2024-02-28T05:20:19;101752.19;;;4.35;100.00
53932;BME280;39844;52.496;13.482;2024-02-28T05:22:44;101754.00;;;4.37;100.00
53932;BME280;39844;52.496;13.482;2024-02-28T05:25:09;101756.56;;;4.36;100.00
53932;BME280;39844;52.496;13.482;2024-02-28T05:27:35;101758.38;;;4.38;100.00
53932;BME280;39844;52.496;13.482;2024-02-28T05:30:01;101767.13;;;4.40;100.00
53932;BME280;39844;52.496;13.482;2024-02-28T05:32:26;101755.91;;;4.41;100.00
53932;BME280;39844;52.496;13.482;2024-02-28T05:34:52;101765.38;;;4.39;100.00
53932;BME280;39844;52.496;13.482;2024-02-28T05:37:17;101762.66;;;4.36;100.00
53932;BME280;39844;52.496;13.482;2024-02-28T05:39:42;101768.63;;;4.34;100.00
53932;BME280;39844;52.496;13.482;2024-02-28T05:42:07;101761.63;;;4.33;100.00
53932;BME280;39844;52.496;13.482;2024-02-28T05:44:33;101755.47;;;4.29;100.00
53932;BME280;39844;52.496;13.482;2024-02-28T05:46:58;101769.38;;;4.31;100.00
53932;BME280;39844;52.496;13.482;2024-02-28T05:49:23;101770.97;;;4.28;100.00
53932;BME280;39844;52.496;13.482;2024-02-28T05:51:49;101774.50;;;4.30;100.00
53932;BME280;39844;52.496;13.482;2024-02-28T05:54:14;101771.88;;;4.28;100.00
53932;BME280;39844;52.496;13.482;2024-02-28T05:56:39;101772.69;;;4.27;100.00
53932;BME280;39844;52.496;13.482;2024-02-28T05:59:04;101777.03;;;4.27;100.00
53932;BME280;39844;52.496;13.482;2024-02-28T06:01:30;101782.22;;;4.27;100.00
53932;BME280;39844;52.496;13.482;2024-02-28T06:03:55;101785.63;;;4.26;100.00
53932;BME280;39844;52.496;13.482;2024-02-28T06:06:20;101785.78;;;4.30;100.00
53932;BME280;39844;52.496;13.482;2024-02-28T06:08:46;101787.63;;;4.33;100.00
53932;BME280;39844;52.496;13.482;2024-02-28T06:11:11;101785.97;;;4.35;100.00
53932;BME280;39844;52.496;13.482;2024-02-28T06:13:36;101793.84;;;4.36;100.00
53932;BME280;39844;52.496;13.482;2024-02-28T06:16:02;101802.53;;;4.37;100.00
53932;BME280;39844;52.496;13.482;2024-02-28T06:18:27;101814.63;;;4.36;100.00
53932;BME280;39844;52.496;13.482;2024-02-28T06:20:56;101815.41;;;4.34;100.00
53932;BME280;39844;52.496;13.482;2024-02-28T06:23:24;101829.34;;;4.36;100.00
53932;BME280;39844;52.496;13.482;2024-02-28T06:25:50;101825.91;;;4.37;100.00
53932;BME280;39844;52.496;13.482;2024-02-28T06:28:15;101825.91;;;4.37;100.00
53932;BME280;39844;52.496;13.482;2024-02-28T06:30:41;101825.19;;;4.41;100.00
53932;BME280;39844;52.496;13.482;2024-02-28T06:33:07;101817.34;;;4.39;100.00
53932;BME280;39844;52.496;13.482;2024-02-28T06:35:32;101839.00;;;4.40;100.00
53932;BME280;39844;52.496;13.482;2024-02-28T06:37:57;101840.75;;;4.39;100.00
53932;BME280;39844;52.496;13.482;2024-02-28T06:40:23;101834.66;;;4.39;100.00
53932;BME280;39844;52.496;13.482;2024-02-28T06:42:48;101838.19;;;4.41;100.00
53932;BME280;39844;52.496;13.482;2024-02-28T06:45:13;101843.38;;;4.41;100.00
53932;BME280;39844;52.496;13.482;2024-02-28T06:47:39;101831.97;;;4.37;100.00
53932;BME280;39844;52.496;13.482;2024-02-28T06:50:04;101824.94;;;4.35;100.00
53932;BME280;39844;52.496;13.482;2024-02-28T06:52:30;101830.28;;;4.38;100.00
53932;BME280;39844;52.496;13.482;2024-02-28T06:54:56;101834.56;;;4.37;100.00
53932;BME280;39844;52.496;13.482;2024-02-28T06:57:21;101839.59;;;4.33;100.00
53932;BME280;39844;52.496;13.482;2024-02-28T06:59:46;101845.66;;;4.32;100.00
53932;BME280;39844;52.496;13.482;2024-02-28T07:02:12;101853.44;;;4.32;100.00
53932;BME280;39844;52.496;13.482;2024-02-28T07:04:38;101855.06;;;4.30;100.00
53932;BME280;39844;52.496;13.482;2024-02-28T07:07:03;101849.88;;;4.30;100.00
53932;BME280;39844;52.496;13.482;2024-02-28T07:09:28;101853.53;;;4.35;100.00
53932;BME280;39844;52.496;13.482;2024-02-28T07:11:54;101850.16;;;4.37;100.00
53932;BME280;39844;52.496;13.482;2024-02-28T07:14:19;101861.53;;;4.39;100.00
53932;BME280;39844;52.496;13.482;2024-02-28T07:16:44;101854.50;;;4.37;100.00
53932;BME280;39844;52.496;13.482;2024-02-28T07:19:10;101858.72;;;4.35;100.00
53932;BME280;39844;52.496;13.482;2024-02-28T07:21:35;101862.06;;;4.31;100.00
53932;BME280;39844;52.496;13.482;2024-02-28T07:24:00;101855.97;;;4.30;100.00
53932;BME280;39844;52.496;13.482;2024-02-28T07:26:26;101862.88;;;4.30;100.00
53932;BME280;39844;52.496;13.482;2024-02-28T07:28:51;101859.47;;;4.31;100.00
53932;BME280;39844;52.496;13.482;2024-02-28T07:31:17;101860.25;;;4.30;100.00
53932;BME280;39844;52.496;13.482;2024-02-28T07:33:42;101853.25;;;4.27;100.00
53932;BME280;39844;52.496;13.482;2024-02-28T07:36:08;101854.97;;;4.27;100.00
53932;BME280;39844;52.496;13.482;2024-02-28T07:38:33;101853.25;;;4.27;100.00
53932;BME280;39844;52.496;13.482;2024-02-28T07:40:58;101860.06;;;4.24;100.00
53932;BME280;39844;52.496;13.482;2024-02-28T07:43:24;101855.66;;;4.23;100.00
53932;BME280;39844;52.496;13.482;2024-02-28T07:45:49;101860.94;;;4.24;100.00
53932;BME280;39844;52.496;13.482;2024-02-28T07:48:14;101858.34;;;4.24;100.00
53932;BME280;39844;52.496;13.482;2024-02-28T07:50:40;101866.06;;;4.23;100.00
53932;BME280;39844;52.496;13.482;2024-02-28T07:53:05;101863.47;;;4.23;100.00
53932;BME280;39844;52.496;13.482;2024-02-28T07:55:30;101866.22;;;4.27;100.00
53932;BME280;39844;52.496;13.482;2024-02-28T07:57:55;101871.56;;;4.30;100.00
53932;BME280;39844;52.496;13.482;2024-02-28T08:00:21;101878.59;;;4.33;100.00
53932;BME280;39844;52.496;13.482;2024-02-28T08:02:46;101881.31;;;4.36;100.00
53932;BME280;39844;52.496;13.482;2024-02-28T08:05:13;101877.91;;;4.37;100.00
53932;BME280;39844;52.496;13.482;2024-02-28T08:07:38;101881.31;;;4.36;100.00
53932;BME280;39844;52.496;13.482;2024-02-28T08:10:04;101887.16;;;4.30;100.00
53932;BME280;39844;52.496;13.482;2024-02-28T08:12:29;101893.25;;;4.31;100.00
53932;BME280;39844;52.496;13.482;2024-02-28T08:14:54;101892.34;;;4.30;100.00
53932;BME280;39844;52.496;13.482;2024-02-28T08:17:20;101895.84;;;4.31;100.00
53932;BME280;39844;52.496;13.482;2024-02-28T08:19:45;101896.78;;;4.33;100.00
53932;BME280;39844;52.496;13.482;2024-02-28T08:22:10;101901.03;;;4.31;100.00
53932;BME280;39844;52.496;13.482;2024-02-28T08:24:37;101904.41;;;4.28;100.00
53932;BME280;39844;52.496;13.482;2024-02-28T08:27:02;101905.16;;;4.26;100.00
53932;BME280;39844;52.496;13.482;2024-02-28T08:29:28;101905.13;;;4.24;100.00
53932;BME280;39844;52.496;13.482;2024-02-28T08:31:53;101908.56;;;4.25;100.00
53932;BME280;39844;52.496;13.482;2024-02-28T08:34:18;101918.09;;;4.24;100.00
53932;BME280;39844;52.496;13.482;2024-02-28T08:36:44;101917.97;;;4.21;100.00
53932;BME280;39844;52.496;13.482;2024-02-28T08:39:09;101916.94;;;4.18;100.00
53932;BME280;39844;52.496;13.482;2024-02-28T08:41:34;101929.81;;;4.15;100.00
53932;BME280;39844;52.496;13.482;2024-02-28T08:43:59;101921.78;;;4.09;100.00
53932;BME280;39844;52.496;13.482;2024-02-28T08:46:25;101931.03;;;4.02;100.00
53932;BME280;39844;52.496;13.482;2024-02-28T08:48:50;101931.78;;;4.00;100.00
53932;BME280;39844;52.496;13.482;2024-02-28T08:51:15;101930.16;;;4.02;100.00
53932;BME280;39844;52.496;13.482;2024-02-28T08:53:41;101932.66;;;4.00;100.00
53932;BME280;39844;52.496;13.482;2024-02-28T08:56:06;101938.00;;;4.03;100.00
53932;BME280;39844;52.496;13.482;2024-02-28T08:58:31;101933.47;;;3.99;100.00
53932;BME280;39844;52.496;13.482;2024-02-28T09:00:56;101926.44;;;3.97;100.00
53932;BME280;39844;52.496;13.482;2024-02-28T09:03:22;101936.84;;;3.97;100.00
53932;BME280;39844;52.496;13.482;2024-02-28T09:05:47;101928.22;;;3.98;100.00
53932;BME280;39844;52.496;13.482;2024-02-28T09:08:12;101928.38;;;4.01;100.00
53932;BME280;39844;52.496;13.482;2024-02-28T09:10:38;101918.94;;;4.03;100.00
53932;BME280;39844;52.496;13.482;2024-02-28T09:13:06;101922.38;;;4.02;100.00
53932;BME280;39844;52.496;13.482;2024-02-28T09:15:31;101912.91;;;4.04;100.00
53932;BME280;39844;52.496;13.482;2024-02-28T09:17:57;101921.66;;;4.06;100.00
53932;BME280;39844;52.496;13.482;2024-02-28T09:20:22;101924.38;;;4.09;100.00
53932;BME280;39844;52.496;13.482;2024-02-28T09:22:47;101929.63;;;4.10;100.00
53932;BME280;39844;52.496;13.482;2024-02-28T09:25:13;101920.00;;;4.08;99.90
53932;BME280;39844;52.496;13.482;2024-02-28T09:27:38;101920.72;;;4.04;99.96
53932;BME280;39844;52.496;13.482;2024-02-28T09:30:07;101926.81;;;4.04;99.96
53932;BME280;39844;52.496;13.482;2024-02-28T09:32:32;101927.47;;;4.00;99.70
53932;BME280;39844;52.496;13.482;2024-02-28T09:34:57;101930.97;;;4.01;100.00
53932;BME280;39844;52.496;13.482;2024-02-28T09:37:25;101928.56;;;4.05;100.00
53932;BME280;39844;52.496;13.482;2024-02-28T09:39:50;101932.19;;;4.09;100.00
53932;BME280;39844;52.496;13.482;2024-02-28T09:42:16;101936.31;;;4.04;98.22
53932;BME280;39844;52.496;13.482;2024-02-28T09:44:42;101930.03;;;3.99;98.35
53932;BME280;39844;52.496;13.482;2024-02-28T09:47:08;101936.78;;;3.95;97.44
53932;BME280;39844;52.496;13.482;2024-02-28T09:49:34;101943.56;;;3.92;97.60
53932;BME280;39844;52.496;13.482;2024-02-28T09:52:00;101947.66;;;3.87;97.44
53932;BME280;39844;52.496;13.482;2024-02-28T09:54:26;101954.66;;;3.88;98.30
53932;BME280;39844;52.496;13.482;2024-02-28T09:56:52;101947.75;;;3.88;98.06
53932;BME280;39844;52.496;13.482;2024-02-28T09:59:18;101947.13;;;3.94;98.68
53932;BME280;39844;52.496;13.482;2024-02-28T10:01:49;101958.66;;;4.00;99.07
53932;BME280;39844;52.496;13.482;2024-02-28T10:04:19;101966.53;;;4.02;98.25
53932;BME280;39844;52.496;13.482;2024-02-28T10:06:46;101963.22;;;4.06;98.17
53932;BME280;39844;52.496;13.482;2024-02-28T10:09:11;101966.63;;;4.05;97.69
53932;BME280;39844;52.496;13.482;2024-02-28T10:11:36;101957.88;;;4.03;97.87
53932;BME280;39844;52.496;13.482;2024-02-28T10:14:02;101959.53;;;4.01;97.88
53932;BME280;39844;52.496;13.482;2024-02-28T10:16:27;101968.16;;;4.00;98.14
53932;BME280;39844;52.496;13.482;2024-02-28T10:18:52;101972.44;;;3.99;98.27
53932;BME280;39844;52.496;13.482;2024-02-28T10:21:18;101976.91;;;4.02;98.61
53932;BME280;39844;52.496;13.482;2024-02-28T10:23:44;101974.22;;;4.00;97.76
53932;BME280;39844;52.496;13.482;2024-02-28T10:26:11;101983.59;;;3.97;97.50
53932;BME280;39844;52.496;13.482;2024-02-28T10:28:37;101978.28;;;3.94;97.26
53932;BME280;39844;52.496;13.482;2024-02-28T10:31:04;101992.09;;;3.93;97.50
53932;BME280;39844;52.496;13.482;2024-02-28T10:33:30;101987.97;;;3.98;98.11
53932;BME280;39844;52.496;13.482;2024-02-28T10:35:55;101994.97;;;3.99;97.38
53932;BME280;39844;52.496;13.482;2024-02-28T10:38:21;101992.22;;;3.96;97.25
53932;BME280;39844;52.496;13.482;2024-02-28T10:40:47;101991.53;;;4.00;98.09
53932;BME280;39844;52.496;13.482;2024-02-28T10:43:15;102002.00;;;4.01;98.01
53932;BME280;39844;52.496;13.482;2024-02-28T10:45:42;101995.91;;;4.01;97.41
53932;BME280;39844;52.496;13.482;2024-02-28T10:48:08;101998.41;;;3.99;96.17
53932;BME280;39844;52.496;13.482;2024-02-28T10:50:33;102003.69;;;4.01;96.21
53932;BME280;39844;52.496;13.482;2024-02-28T10:53:01;101998.50;;;4.01;96.18
53932;BME280;39844;52.496;13.482;2024-02-28T10:55:33;102000.16;;;3.99;95.41
53932;BME280;39844;52.496;13.482;2024-02-28T10:58:03;102002.81;;;4.00;96.40
53932;BME280;39844;52.496;13.482;2024-02-28T11:00:31;102007.53;;;4.09;96.85
53932;BME280;39844;52.496;13.482;2024-02-28T11:02:58;102000.63;;;4.09;95.29
53932;BME280;39844;52.496;13.482;2024-02-28T11:05:37;102002.19;;;4.06;95.08
53932;BME280;39844;52.496;13.482;2024-02-28T11:08:04;102003.13;;;4.08;96.06
53932;BME280;39844;52.496;13.482;2024-02-28T11:10:32;102007.56;;;4.10;96.28
53932;BME280;39844;52.496;13.482;2024-02-28T11:12:58;102010.34;;;4.15;95.65
53932;BME280;39844;52.496;13.482;2024-02-28T11:15:24;102013.03;;;4.16;95.00
53932;BME280;39844;52.496;13.482;2024-02-28T11:17:50;102008.75;;;4.17;94.97
53932;BME280;39844;52.496;13.482;2024-02-28T11:20:15;102010.63;;;4.21;94.78
53932;BME280;39844;52.496;13.482;2024-02-28T11:22:41;102001.31;;;4.26;95.26
53932;BME280;39844;52.496;13.482;2024-02-28T11:25:06;102000.50;;;4.27;94.13
53932;BME280;39844;52.496;13.482;2024-02-28T11:27:32;102000.50;;;4.27;94.58
53932;BME280;39844;52.496;13.482;2024-02-28T11:29:57;102007.59;;;4.31;94.71
53932;BME280;39844;52.496;13.482;2024-02-28T11:32:24;101999.84;;;4.32;93.05
53932;BME280;39844;52.496;13.482;2024-02-28T11:34:50;102002.41;;;4.31;92.61
53932;BME280;39844;52.496;13.482;2024-02-28T11:37:15;101997.16;;;4.29;91.94
53932;BME280;39844;52.496;13.482;2024-02-28T11:39:46;101992.81;;;4.30;91.25
53932;BME280;39844;52.496;13.482;2024-02-28T11:42:13;102004.19;;;4.32;90.86
53932;BME280;39844;52.496;13.482;2024-02-28T11:44:39;102002.41;;;4.31;91.11
53932;BME280;39844;52.496;13.482;2024-02-28T11:47:04;102009.63;;;4.38;92.53
53932;BME280;39844;52.496;13.482;2024-02-28T11:49:32;102009.75;;;4.41;91.75
53932;BME280;39844;52.496;13.482;2024-02-28T11:51:58;102006.22;;;4.39;90.23
53932;BME280;39844;52.496;13.482;2024-02-28T11:54:23;102009.63;;;4.38;88.75
53932;BME280;39844;52.496;13.482;2024-02-28T11:56:48;102015.75;;;4.40;88.65
53932;BME280;39844;52.496;13.482;2024-02-28T11:59:14;102014.00;;;4.39;88.30
53932;BME280;39844;52.496;13.482;2024-02-28T12:01:42;102019.38;;;4.43;88.92
53932;BME280;39844;52.496;13.482;2024-02-28T12:04:08;102017.81;;;4.47;87.83
53932;BME280;39844;52.496;13.482;2024-02-28T12:06:37;102018.81;;;4.51;87.01
53932;BME280;39844;52.496;13.482;2024-02-28T12:09:03;102019.88;;;4.56;87.22
53932;BME280;39844;52.496;13.482;2024-02-28T12:11:30;102017.09;;;4.51;86.20
53932;BME280;39844;52.496;13.482;2024-02-28T12:13:56;102016.28;;;4.52;85.17
53932;BME280;39844;52.496;13.482;2024-02-28T12:16:25;102022.31;;;4.51;85.13
53932;BME280;39844;52.496;13.482;2024-02-28T12:18:53;102015.13;;;4.45;83.15
53932;BME280;39844;52.496;13.482;2024-02-28T12:21:20;102024.53;;;4.42;83.35
53932;BME280;39844;52.496;13.482;2024-02-28T12:23:46;102024.09;;;4.52;84.02
53932;BME280;39844;52.496;13.482;2024-02-28T12:26:12;102016.72;;;4.63;82.91
53932;BME280;39844;52.496;13.482;2024-02-28T12:28:37;102017.72;;;4.66;82.19
53932;BME280;39844;52.496;13.482;2024-02-28T12:31:02;102020.44;;;4.69;81.95
53932;BME280;39844;52.496;13.482;2024-02-28T12:33:27;102016.31;;;4.74;81.14
53932;BME280;39844;52.496;13.482;2024-02-28T12:35:53;102018.97;;;4.76;80.43